Ofarrell, Texas
Current Conditions -  °F | °C
As of 8:19 PM on Thursday 18 Dec 2014 (Local Time) from KTXK Reporting Station
Overcast Overcast  
Wind Chill: 42°   Ceiling: 800
Heat Index: 45°   Visibility: 7mi
Dew Point: 43°   Wind: 6mph
Humidity: 93%   Direction: 50°NE
Pressure: 30.19"   Gusts: NA
Location:  33.0888°N, 94.1627°W
Report Text: KTXK 190219Z 05005KT 7SM BKN008 OVC032 07/06 A3019 RMK AO2 CIG 006V012 T00720061
Loading
Personal Weather Stations






























Interactive Weather Map New forecast layout! Learn more

10-Day Weather Forecast

Advertisements
Track Severe Weather on mobile